Time;durP1;ratioP1;P1;durP2;ratioP2;P2;SDS_P1;SDS_P2;PMS_P1;PMS_P2;Temp;Humidity;BMP_temperature;BMP_pressure;BME280_temperature;BME280_humidity;BME280_pressure;Samples;Min_cycle;Max_cycle;Signal;HPM_P1;HPM_P2
2021/03/03 06:57:48;;;;;;;11.50;6.72;;;;;;;;;;10572362;27;20386;-88
2021/03/03 07:02:52;;;;;;;10.73;7.40;;;;;;;;;;10536434;28;20124;-88
2021/03/03 07:08:07;;;;;;;13.25;7.85;;;;;;;;;;10536023;28;20028;-87
2021/03/03 07:13:10;;;;;;;11.55;8.45;;;;;;;;;;10538128;28;20036;-86
2021/03/03 07:18:30;;;;;;;13.15;8.80;;;;;;;;;;10535411;28;20024;-86
2021/03/03 07:23:50;;;;;;;14.82;8.90;;;;;;;;;;10534714;28;20480;-86
2021/03/03 07:28:51;;;;;;;11.48;7.32;;;;;;;;;;10536142;28;20557;-86
2021/03/03 07:33:55;;;;;;;10.43;7.90;;;;;;;;;;10534852;28;20056;-87
2021/03/03 07:39:10;;;;;;;13.15;8.57;;;;;;;;;;10542478;28;20024;-88
2021/03/03 07:44:20;;;;;;;12.27;7.63;;;;;;;;;;10561516;28;20025;-87
2021/03/03 07:49:26;;;;;;;13.50;9.32;;;;;;;;;;10567921;28;20024;-86
2021/03/03 07:54:28;;;;;;;12.18;8.45;;;;;;;;;;10545181;28;20036;-87
2021/03/03 07:59:32;;;;;;;12.00;7.60;;;;;;;;;;10533762;28;20024;-86
2021/03/03 08:04:37;;;;;;;8.50;6.35;;;;;;;;;;10516238;28;20475;-84
2021/03/03 08:09:38;;;;;;;11.70;6.75;;;;;;;;;;10515466;28;20047;-86
2021/03/03 08:14:39;;;;;;;13.80;8.20;;;;;;;;;;10509159;28;20039;-86
2021/03/03 08:20:00;;;;;;;11.00;7.95;;;;;;;;;;10506723;28;20028;-86
2021/03/03 08:25:01;;;;;;;10.57;8.00;;;;;;;;;;10506328;28;20512;-86
2021/03/03 08:30:16;;;;;;;9.65;8.20;;;;;;;;;;10506878;28;20037;-87
2021/03/03 08:35:44;;;;;;;11.40;8.15;;;;;;;;;;10495043;28;20041;-84
2021/03/03 08:40:49;;;;;;;11.88;8.20;;;;;;;;;;10507625;28;20044;-84
2021/03/03 08:45:50;;;;;;;11.10;8.85;;;;;;;;;;10511768;28;20044;-83
2021/03/03 08:50:53;;;;;;;13.93;9.00;;;;;;;;;;10510541;28;20021;-83
2021/03/03 08:55:54;;;;;;;11.80;8.95;;;;;;;;;;10508680;28;20028;-83
2021/03/03 09:00:55;;;;;;;11.85;9.20;;;;;;;;;;10509455;28;20041;-83
2021/03/03 09:05:57;;;;;;;12.82;9.02;;;;;;;;;;10510828;28;20027;-84
2021/03/03 09:10:58;;;;;;;12.85;9.70;;;;;;;;;;10510496;28;20035;-81
2021/03/03 09:16:05;;;;;;;11.23;9.60;;;;;;;;;;10506521;28;20031;-85
2021/03/03 09:21:18;;;;;;;12.52;9.38;;;;;;;;;;10508182;28;20078;-85
2021/03/03 09:26:20;;;;;;;15.32;10.00;;;;;;;;;;10508033;28;20391;-84
2021/03/03 09:31:52;;;;;;;15.88;10.80;;;;;;;;;;10507985;28;20391;-86
2021/03/03 09:36:57;;;;;;;15.48;10.48;;;;;;;;;;10502458;28;20021;-85
2021/03/03 09:42:03;;;;;;;13.77;10.20;;;;;;;;;;10506001;28;20021;-83
2021/03/03 09:47:04;;;;;;;15.35;10.10;;;;;;;;;;10508608;28;20024;-83
2021/03/03 09:52:06;;;;;;;14.35;9.68;;;;;;;;;;10508191;28;20023;-83
2021/03/03 09:57:13;;;;;;;17.25;10.05;;;;;;;;;;10506196;28;20032;-83
2021/03/03 10:02:17;;;;;;;15.88;10.32;;;;;;;;;;10507319;28;20099;-81
2021/03/03 10:07:22;;;;;;;12.90;10.23;;;;;;;;;;10507019;28;20024;-84
2021/03/03 10:12:41;;;;;;;16.52;11.30;;;;;;;;;;10509850;28;20016;-83
2021/03/03 10:17:47;;;;;;;17.75;12.27;;;;;;;;;;10506361;28;20043;-83
2021/03/03 10:22:48;;;;;;;13.80;9.25;;;;;;;;;;10510961;28;20063;-82
2021/03/03 10:27:50;;;;;;;16.17;10.73;;;;;;;;;;10509260;28;20032;-88
2021/03/03 10:32:54;;;;;;;15.77;11.02;;;;;;;;;;10511917;28;20092;-85
2021/03/03 10:37:55;;;;;;;16.58;11.95;;;;;;;;;;10520527;28;20024;-83
2021/03/03 10:43:07;;;;;;;16.23;10.48;;;;;;;;;;10524352;28;20029;-82
2021/03/03 10:48:08;;;;;;;14.18;10.43;;;;;;;;;;10521328;28;20074;-82
2021/03/03 10:53:09;;;;;;;22.00;17.88;;;;;;;;;;10524101;28;20029;-82
2021/03/03 10:58:15;;;;;;;17.15;12.57;;;;;;;;;;10501729;28;20119;-83
2021/03/03 11:03:19;;;;;;;18.60;14.02;;;;;;;;;;10504505;28;20032;-86
2021/03/03 11:08:22;;;;;;;30.85;22.38;;;;;;;;;;10502823;28;20028;-86
2021/03/03 11:13:23;;;;;;;23.60;16.38;;;;;;;;;;10503647;28;20478;-85
2021/03/03 11:18:24;;;;;;;25.13;21.48;;;;;;;;;;10503658;28;20031;-85
2021/03/03 11:23:25;;;;;;;15.23;12.02;;;;;;;;;;10508444;28;20035;-84
2021/03/03 11:28:26;;;;;;;18.73;13.38;;;;;;;;;;10509545;28;20085;-84
2021/03/03 11:33:27;;;;;;;18.25;13.07;;;;;;;;;;10512497;28;20032;-84
2021/03/03 11:38:28;;;;;;;15.57;12.63;;;;;;;;;;10513627;28;20050;-84
2021/03/03 11:43:29;;;;;;;19.38;15.05;;;;;;;;;;10518007;28;20095;-84
2021/03/03 11:48:30;;;;;;;16.05;12.80;;;;;;;;;;10521789;28;20025;-84
2021/03/03 11:53:31;;;;;;;19.23;15.52;;;;;;;;;;10520027;28;20056;-83
2021/03/03 11:58:32;;;;;;;24.02;18.85;;;;;;;;;;10520900;28;20035;-85
2021/03/03 12:03:33;;;;;;;19.95;15.77;;;;;;;;;;10517439;28;20082;-85
2021/03/03 12:08:34;;;;;;;23.08;20.20;;;;;;;;;;10523647;28;20438;-84
2021/03/03 12:13:35;;;;;;;19.27;13.98;;;;;;;;;;10519312;28;20052;-84
2021/03/03 12:18:36;;;;;;;33.10;26.42;;;;;;;;;;10521756;28;20032;-84
2021/03/03 12:23:37;;;;;;;19.70;14.30;;;;;;;;;;10518959;28;20157;-82
2021/03/03 12:28:38;;;;;;;23.48;18.98;;;;;;;;;;10511286;28;20559;-82
2021/03/03 12:33:39;;;;;;;21.92;14.32;;;;;;;;;;10510319;28;20033;-81
2021/03/03 12:38:40;;;;;;;19.40;14.02;;;;;;;;;;10510091;28;20021;-83
2021/03/03 12:43:41;;;;;;;18.30;13.60;;;;;;;;;;10509350;28;20390;-82
2021/03/03 12:48:42;;;;;;;20.90;16.95;;;;;;;;;;10509498;28;20367;-83
2021/03/03 12:53:45;;;;;;;20.83;17.50;;;;;;;;;;10509711;28;20036;-82
2021/03/03 12:58:46;;;;;;;29.25;24.70;;;;;;;;;;10509366;28;20033;-83
2021/03/03 13:03:47;;;;;;;23.33;19.02;;;;;;;;;;10507727;28;20035;-82
2021/03/03 13:08:48;;;;;;;26.20;20.98;;;;;;;;;;10508716;28;20016;-84
2021/03/03 13:13:49;;;;;;;32.83;23.65;;;;;;;;;;10510356;28;20092;-84
2021/03/03 13:18:50;;;;;;;27.52;20.90;;;;;;;;;;10507225;28;20029;-85
2021/03/03 13:23:51;;;;;;;29.45;25.35;;;;;;;;;;10506898;28;20450;-85
2021/03/03 13:28:53;;;;;;;19.75;17.55;;;;;;;;;;10508467;28;20024;-84
2021/03/03 13:33:54;;;;;;;19.60;16.38;;;;;;;;;;10507199;28;20482;-85
2021/03/03 13:38:55;;;;;;;27.85;23.85;;;;;;;;;;10507121;28;20024;-85
2021/03/03 13:43:56;;;;;;;19.13;15.10;;;;;;;;;;10507525;28;20064;-85
2021/03/03 13:48:57;;;;;;;22.88;18.42;;;;;;;;;;10508841;28;20016;-83
2021/03/03 13:53:59;;;;;;;23.08;19.23;;;;;;;;;;10512498;28;20039;-83
2021/03/03 13:59:00;;;;;;;19.60;16.38;;;;;;;;;;10510114;28;20032;-84
2021/03/03 14:04:01;;;;;;;20.08;14.75;;;;;;;;;;10510479;28;20036;-83
2021/03/03 14:09:02;;;;;;;19.85;17.48;;;;;;;;;;10508910;28;20028;-84
2021/03/03 14:14:03;;;;;;;24.65;18.75;;;;;;;;;;10509107;28;20084;-85
2021/03/03 14:19:04;;;;;;;19.38;14.75;;;;;;;;;;10510540;28;20036;-83
2021/03/03 14:24:06;;;;;;;17.08;13.23;;;;;;;;;;10514546;28;20078;-84
2021/03/03 14:29:07;;;;;;;20.45;17.50;;;;;;;;;;10507720;28;20020;-84
2021/03/03 14:34:08;;;;;;;17.98;13.63;;;;;;;;;;10504998;28;20028;-84
2021/03/03 14:39:09;;;;;;;14.27;11.45;;;;;;;;;;10505494;28;20024;-83
2021/03/03 14:44:10;;;;;;;14.05;12.45;;;;;;;;;;10507012;28;20395;-83
2021/03/03 14:49:11;;;;;;;14.93;10.88;;;;;;;;;;10505179;28;20043;-83
2021/03/03 14:54:12;;;;;;;19.88;15.40;;;;;;;;;;10504829;28;20075;-81
2021/03/03 14:59:14;;;;;;;19.13;13.60;;;;;;;;;;10506682;28;20039;-82
2021/03/03 15:04:15;;;;;;;14.10;12.35;;;;;;;;;;10506878;28;20024;-81
2021/03/03 15:09:16;;;;;;;16.75;13.20;;;;;;;;;;10506071;28;20058;-82
2021/03/03 15:14:18;;;;;;;16.35;12.00;;;;;;;;;;10505585;28;20036;-82
2021/03/03 15:19:19;;;;;;;15.15;12.77;;;;;;;;;;10514101;28;20082;-81
2021/03/03 15:24:20;;;;;;;26.17;19.88;;;;;;;;;;10515616;28;20090;-81
2021/03/03 15:29:26;;;;;;;18.17;16.00;;;;;;;;;;10483148;28;20027;-83
2021/03/03 15:34:44;;;;;;;16.92;15.13;;;;;;;;;;10472791;28;20503;-84
2021/03/03 15:39:45;;;;;;;27.95;21.98;;;;;;;;;;10473269;28;20025;-83
2021/03/03 15:44:46;;;;;;;24.80;21.98;;;;;;;;;;10474646;28;20032;-84
2021/03/03 15:49:50;;;;;;;17.25;13.20;;;;;;;;;;10479198;28;20025;-82
2021/03/03 16:00:37;;;;;;;20.83;18.15;;;;;;;;;;10477906;28;20502;-83
2021/03/03 16:06:10;;;;;;;15.63;13.23;;;;;;;;;;10472765;28;20009;-85
2021/03/03 16:11:30;;;;;;;27.92;23.33;;;;;;;;;;10465371;28;20041;-84
2021/03/03 16:16:36;;;;;;;26.83;22.42;;;;;;;;;;10468587;28;20057;-84
2021/03/03 16:21:37;;;;;;;29.92;24.67;;;;;;;;;;10469753;28;20025;-84
2021/03/03 16:32:32;;;;;;;13.32;9.73;;;;;;;;;;10479011;28;20017;-83
2021/03/03 16:37:33;;;;;;;16.88;15.05;;;;;;;;;;10472345;28;20041;-83
2021/03/03 16:43:02;;;;;;;23.13;20.58;;;;;;;;;;10476418;28;20040;-87
2021/03/03 16:48:04;;;;;;;14.60;11.45;;;;;;;;;;10464092;28;20541;-83
2021/03/03 16:53:06;;;;;;;21.27;19.00;;;;;;;;;;10470510;28;20089;-87
2021/03/03 16:58:08;;;;;;;22.20;18.67;;;;;;;;;;10467662;28;20025;-87
2021/03/03 17:03:11;;;;;;;21.98;17.02;;;;;;;;;;10469831;28;20453;-86
2021/03/03 17:08:13;;;;;;;24.40;19.17;;;;;;;;;;10461578;28;20025;-87
2021/03/03 17:13:14;;;;;;;30.13;26.85;;;;;;;;;;10467094;28;20021;-88
2021/03/03 17:18:36;;;;;;;26.25;23.38;;;;;;;;;;10462145;28;20082;-87
2021/03/03 17:23:45;;;;;;;19.20;16.48;;;;;;;;;;10468880;28;20036;-87
2021/03/03 17:28:51;;;;;;;22.60;18.70;;;;;;;;;;10462053;28;20505;-88
2021/03/03 17:33:52;;;;;;;32.97;29.42;;;;;;;;;;10460567;28;20033;-87
2021/03/03 17:38:53;;;;;;;21.63;17.58;;;;;;;;;;10458333;28;20025;-87
2021/03/03 17:43:57;;;;;;;25.02;22.33;;;;;;;;;;10464934;28;20040;-87
2021/03/03 17:48:58;;;;;;;34.08;30.30;;;;;;;;;;10500460;28;20378;-87
2021/03/03 17:53:59;;;;;;;28.33;25.25;;;;;;;;;;10500971;28;20048;-87
2021/03/03 17:59:03;;;;;;;31.00;27.90;;;;;;;;;;10499286;28;20055;-87
2021/03/03 18:04:06;;;;;;;22.25;19.95;;;;;;;;;;10501754;28;20040;-86
2021/03/03 18:09:07;;;;;;;30.60;26.33;;;;;;;;;;10499542;28;20025;-88
2021/03/03 18:14:08;;;;;;;19.70;16.63;;;;;;;;;;10500343;28;20052;-87
2021/03/03 18:19:09;;;;;;;18.13;16.27;;;;;;;;;;10499319;28;20035;-88
2021/03/03 18:24:11;;;;;;;18.55;16.02;;;;;;;;;;10514679;28;20406;-87
2021/03/03 18:29:15;;;;;;;20.73;17.67;;;;;;;;;;10516309;28;20029;-87
2021/03/03 18:34:20;;;;;;;24.65;21.13;;;;;;;;;;10512973;28;20031;-87
2021/03/03 18:39:24;;;;;;;22.33;20.02;;;;;;;;;;10512926;28;20032;-87
2021/03/03 18:44:37;;;;;;;21.05;17.35;;;;;;;;;;10516778;28;20024;-87
2021/03/03 18:49:38;;;;;;;21.00;18.88;;;;;;;;;;10511302;28;20028;-86
2021/03/03 18:54:38;;;;;;;19.58;16.15;;;;;;;;;;10502251;28;20085;-86
2021/03/03 18:59:40;;;;;;;25.95;23.15;;;;;;;;;;10496974;28;20028;-87
2021/03/03 19:04:41;;;;;;;20.40;18.35;;;;;;;;;;10494046;28;20064;-87
2021/03/03 19:09:50;;;;;;;20.17;18.02;;;;;;;;;;10514178;28;20055;-84
2021/03/03 19:14:52;;;;;;;28.60;25.60;;;;;;;;;;10518876;28;20104;-84
2021/03/03 19:19:55;;;;;;;30.48;27.17;;;;;;;;;;10512063;28;20479;-84
2021/03/03 19:24:56;;;;;;;21.63;19.50;;;;;;;;;;10507536;28;20036;-85
2021/03/03 19:29:57;;;;;;;32.17;28.83;;;;;;;;;;10504565;28;20112;-85
2021/03/03 19:34:58;;;;;;;45.85;41.05;;;;;;;;;;10501179;28;20079;-84
2021/03/03 19:40:20;;;;;;;45.90;40.95;;;;;;;;;;10515289;28;20021;-84
2021/03/03 19:45:22;;;;;;;45.85;41.15;;;;;;;;;;10513575;28;20101;-85
2021/03/03 19:50:24;;;;;;;46.22;41.95;;;;;;;;;;10508799;28;20382;-86
2021/03/03 19:55:25;;;;;;;38.50;34.72;;;;;;;;;;10499653;28;20025;-86
2021/03/03 20:00:26;;;;;;;48.53;43.55;;;;;;;;;;10502919;28;20386;-87
2021/03/03 20:05:27;;;;;;;47.53;42.38;;;;;;;;;;10518344;28;20115;-86
2021/03/03 20:10:28;;;;;;;43.67;39.13;;;;;;;;;;10529825;28;20055;-86
2021/03/03 20:15:29;;;;;;;42.45;37.92;;;;;;;;;;10526041;28;20082;-85
2021/03/03 20:20:30;;;;;;;41.33;37.15;;;;;;;;;;10510480;28;20021;-85
2021/03/03 20:25:34;;;;;;;44.33;39.75;;;;;;;;;;10508754;28;20049;-85
2021/03/03 20:30:35;;;;;;;44.38;39.80;;;;;;;;;;10508280;28;20032;-84
2021/03/03 20:35:36;;;;;;;42.30;38.00;;;;;;;;;;10508342;28;20036;-85
2021/03/03 20:40:37;;;;;;;45.45;40.75;;;;;;;;;;10508509;28;20035;-84
2021/03/03 20:45:38;;;;;;;35.05;31.33;;;;;;;;;;10512745;28;20064;-82
2021/03/03 20:50:40;;;;;;;44.70;40.33;;;;;;;;;;10513862;28;20395;-85
2021/03/03 20:55:40;;;;;;;49.38;44.10;;;;;;;;;;10506850;28;20035;-85
2021/03/03 21:00:43;;;;;;;50.65;45.55;;;;;;;;;;10506675;28;20024;-85
2021/03/03 21:05:44;;;;;;;49.40;44.35;;;;;;;;;;10489712;28;20426;-85
2021/03/03 21:10:46;;;;;;;50.92;45.58;;;;;;;;;;10506590;28;20039;-85
2021/03/03 21:15:47;;;;;;;46.78;41.75;;;;;;;;;;10489727;28;20040;-85
2021/03/03 21:20:48;;;;;;;49.17;44.35;;;;;;;;;;10507235;28;20027;-86
